createdAt,value
2022-08-08T00:00:54.154Z,16.57
2022-08-08T00:00:56.315Z,16.57
2022-08-08T00:02:04.215Z,16.62
2022-08-08T00:02:43.311Z,16.60
2022-08-08T00:03:32.965Z,16.48
2022-08-08T00:04:31.730Z,16.59
2022-08-08T00:05:43.983Z,16.55
2022-08-08T00:06:34.991Z,16.50
2022-08-08T00:07:31.557Z,16.57
2022-08-08T00:08:31.511Z,16.55
2022-08-08T00:09:33.201Z,16.60
2022-08-08T00:10:31.428Z,16.55
2022-08-08T00:11:46.964Z,16.60
2022-08-08T00:12:31.744Z,16.44
2022-08-08T00:14:16.405Z,16.51
2022-08-08T00:14:48.085Z,16.50
2022-08-08T00:15:56.932Z,16.48
2022-08-08T00:16:31.196Z,16.54
2022-08-08T00:17:47.910Z,16.50
2022-08-08T00:18:31.136Z,16.48
2022-08-08T00:19:31.507Z,16.44
2022-08-08T00:20:31.051Z,16.44
2022-08-08T00:21:31.011Z,16.40
2022-08-08T00:22:31.227Z,16.36
2022-08-08T00:23:43.501Z,16.33
2022-08-08T00:24:30.894Z,16.34
2022-08-08T00:25:44.885Z,16.36
2022-08-08T00:26:30.824Z,16.41
2022-08-08T00:27:34.746Z,16.37
2022-08-08T00:28:35.267Z,16.34
2022-08-08T00:29:45.654Z,16.32
2022-08-08T00:30:30.679Z,16.41
2022-08-08T00:32:32.664Z,16.42
2022-08-08T00:32:35.406Z,16.44
2022-08-08T00:34:18.790Z,16.45
2022-08-08T00:34:30.512Z,16.55
2022-08-08T00:35:30.474Z,16.59
2022-08-08T00:36:35.166Z,16.59
2022-08-08T00:37:48.325Z,16.54
2022-08-08T00:38:32.183Z,16.59
2022-08-08T00:41:05.736Z,16.51
2022-08-08T00:41:12.143Z,16.52
2022-08-08T00:41:44.803Z,16.50
2022-08-08T00:42:31.446Z,16.44
2022-08-08T00:43:40.599Z,16.52
2022-08-08T00:44:30.137Z,16.44
2022-08-08T00:45:32.239Z,16.37
2022-08-08T00:46:32.184Z,16.47
2022-08-08T00:47:36.724Z,16.48
2022-08-08T00:48:33.806Z,16.55
2022-08-08T00:49:32.225Z,16.44
2022-08-08T00:50:29.905Z,16.41
2022-08-08T00:51:39.145Z,16.40
2022-08-08T00:52:34.654Z,16.36
2022-08-08T00:53:29.805Z,16.41
2022-08-08T00:54:29.764Z,16.50
2022-08-08T00:55:36.055Z,16.50
2022-08-08T00:56:30.191Z,16.48
2022-08-08T00:57:36.096Z,16.48
2022-08-08T00:58:31.758Z,16.54
2022-08-08T00:59:44.709Z,16.34
2022-08-08T01:00:32.118Z,16.48
2022-08-08T01:01:38.795Z,16.36
2022-08-08T01:03:54.097Z,16.36
2022-08-08T01:04:01.821Z,16.48
2022-08-08T01:04:29.730Z,16.47
2022-08-08T01:05:58.731Z,16.41
2022-08-08T01:06:29.307Z,16.48
2022-08-08T01:07:54.080Z,16.51
2022-08-08T01:08:30.209Z,16.45
2022-08-08T01:09:36.031Z,16.52
2022-08-08T01:10:29.144Z,16.51
2022-08-08T01:11:29.105Z,16.52
2022-08-08T01:12:29.693Z,16.41
2022-08-08T01:13:43.998Z,16.48
2022-08-08T01:14:53.943Z,16.42
2022-08-08T01:15:43.815Z,16.51
2022-08-08T01:16:28.913Z,16.44
2022-08-08T01:17:52.152Z,16.42
2022-08-08T01:18:53.396Z,16.42
2022-08-08T01:19:52.145Z,16.37
2022-08-08T01:20:28.764Z,16.27
2022-08-08T01:21:35.093Z,16.33
2022-08-08T01:22:35.312Z,16.37
2022-08-08T01:24:06.551Z,16.32
2022-08-08T01:24:28.610Z,16.33
2022-08-08T01:25:39.937Z,16.27
2022-08-08T01:26:28.576Z,16.18
2022-08-08T01:27:33.028Z,16.18
2022-08-08T01:28:29.516Z,16.18
2022-08-08T01:29:35.679Z,16.16
2022-08-08T01:30:28.381Z,16.16
2022-08-08T01:32:13.886Z,16.06
2022-08-08T01:32:28.633Z,16.13
2022-08-08T01:33:43.286Z,16.18
2022-08-08T01:34:29.056Z,16.10
2022-08-08T01:35:30.464Z,16.04
2022-08-08T01:36:28.155Z,15.98
2022-08-08T01:37:57.669Z,15.95
2022-08-08T01:38:28.076Z,15.99
2022-08-08T01:39:28.478Z,15.88
2022-08-08T01:40:28.208Z,15.92
2022-08-08T01:41:27.963Z,15.93
2022-08-08T01:42:35.713Z,15.91
2022-08-08T01:43:34.521Z,15.88
2022-08-08T01:44:27.847Z,15.88
2022-08-08T01:45:27.816Z,15.88
2022-08-08T01:46:27.770Z,15.91
2022-08-08T01:48:16.812Z,15.91
2022-08-08T01:48:30.769Z,15.93
2022-08-08T01:49:37.773Z,15.92
2022-08-08T01:50:29.780Z,15.85
2022-08-08T01:51:31.591Z,15.80
2022-08-08T01:52:53.226Z,15.81
2022-08-08T01:55:16.480Z,15.78
2022-08-08T01:55:17.134Z,15.77
2022-08-08T01:56:28.108Z,15.80
2022-08-08T01:56:31.649Z,15.86
2022-08-08T01:58:04.043Z,15.77
2022-08-08T01:58:38.634Z,15.77
2022-08-08T01:59:38.029Z,15.74
2022-08-08T02:00:27.760Z,15.84
2022-08-08T02:01:28.169Z,15.74
2022-08-08T02:02:34.193Z,15.77
2022-08-08T02:03:56.121Z,15.73
2022-08-08T02:04:28.341Z,15.68
2022-08-08T02:05:33.740Z,15.71
2022-08-08T02:06:33.145Z,15.66
2022-08-08T02:07:26.976Z,15.62
2022-08-08T02:08:33.916Z,15.68
2022-08-08T02:09:50.199Z,15.77
2022-08-08T02:10:29.475Z,15.71
2022-08-08T02:11:52.651Z,15.71
2022-08-08T02:12:27.002Z,15.70
2022-08-08T02:13:54.850Z,15.64
2022-08-08T02:14:26.700Z,15.67
2022-08-08T02:15:26.667Z,15.64
2022-08-08T02:16:28.222Z,15.64
2022-08-08T02:17:26.585Z,15.71
2022-08-08T02:18:26.562Z,15.71
2022-08-08T02:19:56.914Z,15.70
2022-08-08T02:21:01.078Z,15.62
2022-08-08T02:21:26.432Z,15.67
2022-08-08T02:22:28.182Z,15.68
2022-08-08T02:23:31.554Z,15.62
2022-08-08T02:24:26.337Z,15.59
2022-08-08T02:25:32.808Z,15.60
2022-08-08T02:26:26.240Z,15.59
2022-08-08T02:27:26.202Z,15.55
2022-08-08T02:28:34.843Z,15.58
2022-08-08T02:29:26.138Z,15.52
2022-08-08T02:30:26.087Z,15.49
2022-08-08T02:31:57.828Z,15.51
2022-08-08T02:32:26.277Z,15.44
2022-08-08T02:33:41.542Z,15.43
2022-08-08T02:34:32.976Z,15.40
2022-08-08T02:35:28.266Z,15.40
2022-08-08T02:36:25.857Z,15.31
2022-08-08T02:37:52.438Z,15.28
2022-08-08T02:38:30.087Z,15.27
2022-08-08T02:39:40.743Z,15.31
2022-08-08T02:40:25.763Z,15.23
2022-08-08T02:41:59.446Z,15.23
2022-08-08T02:42:38.110Z,15.25
2022-08-08T02:44:44.904Z,15.00
2022-08-08T02:44:45.505Z,15.16
2022-08-08T02:45:25.513Z,14.94
2022-08-08T02:46:25.476Z,14.85
2022-08-08T02:47:25.594Z,14.91
2022-08-08T02:48:26.234Z,14.78
2022-08-08T02:49:48.241Z,14.78
2022-08-08T02:50:25.318Z,14.69
2022-08-08T02:51:30.473Z,14.72
2022-08-08T02:52:34.803Z,14.61
2022-08-08T02:53:25.215Z,14.56
2022-08-08T02:54:26.045Z,14.60
2022-08-08T02:55:25.123Z,14.46
2022-08-08T02:56:25.091Z,14.44
2022-08-08T02:57:25.060Z,14.41
2022-08-08T02:58:26.617Z,14.39
2022-08-08T02:59:37.537Z,14.31
2022-08-08T03:00:31.880Z,14.26
2022-08-08T03:01:24.989Z,14.17
2022-08-08T03:02:30.120Z,14.23
2022-08-08T03:03:46.325Z,14.19
2022-08-08T03:05:05.296Z,14.01
2022-08-08T03:05:24.764Z,13.99
2022-08-08T03:06:34.777Z,13.99
2022-08-08T03:07:24.664Z,14.05
2022-08-08T03:08:24.625Z,14.08
2022-08-08T03:09:24.585Z,14.06
2022-08-08T03:10:32.940Z,14.02
2022-08-08T03:11:31.882Z,13.96
2022-08-08T03:12:36.270Z,13.96
2022-08-08T03:15:54.331Z,13.90
2022-08-08T03:15:56.207Z,13.99
2022-08-08T03:15:59.073Z,13.83
2022-08-08T03:16:36.024Z,13.93
2022-08-08T03:17:34.073Z,13.75
2022-08-08T03:18:31.584Z,13.84
2022-08-08T03:19:24.195Z,13.83
2022-08-08T03:20:24.455Z,13.72
2022-08-08T03:21:26.903Z,13.75
2022-08-08T03:22:38.217Z,13.86
2022-08-08T03:23:24.053Z,13.69
2022-08-08T03:24:24.003Z,13.75
2022-08-08T03:25:35.735Z,13.72
2022-08-08T03:26:23.925Z,13.65
2022-08-08T03:27:27.165Z,13.55
2022-08-08T03:28:24.719Z,13.63
2022-08-08T03:29:38.131Z,13.71
2022-08-08T03:30:23.771Z,13.71
2022-08-08T03:31:25.360Z,13.66
2022-08-08T03:32:29.211Z,13.68
2022-08-08T03:33:58.786Z,13.73
2022-08-08T03:34:23.615Z,13.59
2022-08-08T03:35:23.586Z,13.62
2022-08-08T03:36:28.026Z,13.59
2022-08-08T03:38:53.966Z,13.55
2022-08-08T03:38:57.411Z,13.61
2022-08-08T03:39:23.467Z,13.57
2022-08-08T03:40:29.460Z,13.53
2022-08-08T03:42:27.261Z,13.51
2022-08-08T03:42:30.169Z,13.46
2022-08-08T03:43:23.262Z,13.50
2022-08-08T03:44:25.262Z,13.47
2022-08-08T03:46:03.254Z,13.53
2022-08-08T03:46:25.418Z,13.44
2022-08-08T03:47:23.119Z,13.48
2022-08-08T03:49:09.478Z,13.41
2022-08-08T03:49:57.546Z,13.53
2022-08-08T03:50:24.780Z,13.46
2022-08-08T03:51:40.240Z,13.44
2022-08-08T03:52:22.912Z,13.39
2022-08-08T03:53:24.011Z,13.43
2022-08-08T03:54:41.663Z,13.36
2022-08-08T03:55:57.149Z,13.41
2022-08-08T03:56:31.521Z,13.43
2022-08-08T03:58:30.933Z,13.39
2022-08-08T03:58:34.328Z,13.36
2022-08-08T03:59:26.205Z,13.28
2022-08-08T04:00:22.603Z,13.32
2022-08-08T04:01:24.351Z,13.31
2022-08-08T04:02:33.095Z,13.35
2022-08-08T04:03:26.013Z,13.38
2022-08-08T04:04:23.058Z,13.35
2022-08-08T04:05:27.419Z,13.28
2022-08-08T04:06:22.367Z,13.25
2022-08-08T04:07:22.325Z,13.25
2022-08-08T04:08:33.689Z,13.24
2022-08-08T04:09:22.247Z,13.21
2022-08-08T04:10:22.284Z,13.19
2022-08-08T04:11:23.562Z,13.10
2022-08-08T04:12:22.731Z,13.17
2022-08-08T04:13:22.091Z,13.16
2022-08-08T04:14:35.730Z,13.12
2022-08-08T04:15:22.300Z,13.21
2022-08-08T04:16:21.984Z,13.22
2022-08-08T04:17:22.461Z,13.22
2022-08-08T04:18:21.896Z,13.22
2022-08-08T04:19:23.387Z,13.27
2022-08-08T04:20:21.816Z,13.24
2022-08-08T04:21:23.174Z,13.16
2022-08-08T04:22:24.095Z,13.21
2022-08-08T04:23:21.700Z,13.16
2022-08-08T04:24:29.689Z,13.29
2022-08-08T04:25:21.621Z,13.75
2022-08-08T04:26:21.589Z,13.79
2022-08-08T04:28:02.831Z,13.91
2022-08-08T04:28:37.379Z,13.90
2022-08-08T04:29:21.470Z,14.02
2022-08-08T04:30:21.429Z,14.04
2022-08-08T04:31:30.734Z,14.05
2022-08-08T04:32:30.760Z,14.29
2022-08-08T04:33:21.309Z,14.30
2022-08-08T04:34:21.269Z,14.45
2022-08-08T04:35:22.848Z,14.44
2022-08-08T04:36:21.196Z,14.78
2022-08-08T04:37:21.162Z,14.78
2022-08-08T04:38:22.186Z,14.79
2022-08-08T04:40:05.461Z,14.67
2022-08-08T04:40:24.268Z,14.79
2022-08-08T04:41:21.282Z,14.85
2022-08-08T04:42:20.960Z,14.79
2022-08-08T04:43:22.214Z,14.87
2022-08-08T04:44:21.071Z,14.87
2022-08-08T04:45:21.268Z,14.91
2022-08-08T04:46:20.801Z,14.95
2022-08-08T04:47:20.760Z,14.82
2022-08-08T04:48:22.168Z,14.86
2022-08-08T04:49:20.685Z,14.91
2022-08-08T04:50:25.214Z,14.91
2022-08-08T04:51:23.437Z,14.83
2022-08-08T04:52:20.569Z,14.91
2022-08-08T04:54:36.907Z,14.95
2022-08-08T04:54:39.623Z,15.00
2022-08-08T04:55:20.451Z,15.05
2022-08-08T04:56:20.415Z,15.03
2022-08-08T04:57:20.374Z,14.95
2022-08-08T04:58:20.531Z,14.95
2022-08-08T04:59:24.229Z,15.00
2022-08-08T05:00:20.261Z,14.97
2022-08-08T05:01:20.246Z,14.98
2022-08-08T05:02:28.424Z,14.86
2022-08-08T05:04:09.781Z,15.00
2022-08-08T05:04:20.117Z,15.01
2022-08-08T05:05:44.482Z,15.05
2022-08-08T05:06:25.561Z,15.13
2022-08-08T05:07:19.993Z,15.15
2022-08-08T05:08:20.680Z,15.25
2022-08-08T05:09:19.910Z,15.68
2022-08-08T05:10:19.877Z,16.51
2022-08-08T05:11:23.785Z,17.36
2022-08-08T05:12:20.553Z,18.21
2022-08-08T05:13:19.756Z,18.96
2022-08-08T05:14:20.639Z,19.55
2022-08-08T05:15:19.678Z,20.19
2022-08-08T05:16:51.674Z,20.71
2022-08-08T05:17:20.257Z,21.21
2022-08-08T05:18:19.567Z,21.67
2022-08-08T05:20:11.573Z,22.01
2022-08-08T05:20:19.582Z,22.30
2022-08-08T05:21:19.694Z,22.17
2022-08-08T05:22:19.427Z,22.51
2022-08-08T05:23:19.379Z,22.78
2022-08-08T05:24:19.342Z,22.89
2022-08-08T05:25:21.473Z,23.12
2022-08-08T05:26:19.937Z,22.88
2022-08-08T05:27:19.247Z,22.97
2022-08-08T05:28:48.343Z,23.47
2022-08-08T05:29:19.158Z,23.72
2022-08-08T05:30:28.032Z,23.77
2022-08-08T05:32:02.046Z,23.90
2022-08-08T05:32:19.850Z,23.77
2022-08-08T05:33:19.016Z,23.77
2022-08-08T05:34:18.987Z,23.86
2022-08-08T05:35:18.995Z,24.24
2022-08-08T05:36:25.654Z,24.60
2022-08-08T05:37:19.727Z,24.56
2022-08-08T05:38:30.429Z,24.55
2022-08-08T05:39:18.908Z,25.02
2022-08-08T05:40:21.552Z,25.22
2022-08-08T05:41:18.736Z,25.07
2022-08-08T05:42:19.456Z,25.12
2022-08-08T05:43:39.353Z,25.60
2022-08-08T05:44:18.631Z,25.64
2022-08-08T05:45:25.020Z,25.71
2022-08-08T05:46:18.561Z,25.91
2022-08-08T05:47:21.174Z,25.98
2022-08-08T05:48:28.253Z,26.03
2022-08-08T05:49:18.458Z,26.19
2022-08-08T05:50:18.425Z,26.72
2022-08-08T05:51:18.389Z,26.93
2022-08-08T05:52:18.356Z,26.97
2022-08-08T05:53:54.419Z,27.15
2022-08-08T05:54:28.037Z,27.06
2022-08-08T05:55:18.259Z,27.65
2022-08-08T05:56:18.229Z,27.95
2022-08-08T05:57:57.589Z,28.06
2022-08-08T05:58:20.365Z,28.05
2022-08-08T05:59:59.390Z,27.90
2022-08-08T06:00:24.716Z,27.53
2022-08-08T06:01:52.720Z,27.24
2022-08-08T06:02:18.023Z,26.81
2022-08-08T06:03:24.686Z,26.50
2022-08-08T06:04:22.884Z,26.56
2022-08-08T06:05:33.795Z,26.76
2022-08-08T06:06:18.067Z,26.71
2022-08-08T06:07:17.866Z,27.09
2022-08-08T06:08:33.152Z,27.16
2022-08-08T06:09:58.483Z,27.43
2022-08-08T06:10:17.759Z,27.68
2022-08-08T06:11:17.735Z,27.96
2022-08-08T06:12:18.653Z,27.77
2022-08-08T06:13:22.421Z,27.66
2022-08-08T06:14:17.914Z,27.84
2022-08-08T06:15:17.591Z,27.90
2022-08-08T06:16:19.000Z,27.23
2022-08-08T06:17:21.102Z,27.05
2022-08-08T06:18:20.725Z,27.27
2022-08-08T06:19:17.460Z,27.49
2022-08-08T06:20:17.429Z,27.43
2022-08-08T06:21:32.865Z,27.28
2022-08-08T06:22:33.245Z,26.88
2022-08-08T06:23:17.342Z,26.72
2022-08-08T06:24:30.251Z,26.96
2022-08-08T06:25:17.953Z,26.96
2022-08-08T06:26:44.986Z,26.78
2022-08-08T06:27:17.202Z,27.16
2022-08-08T06:28:17.179Z,27.49
2022-08-08T06:29:48.741Z,27.74
2022-08-08T06:30:20.143Z,28.55
2022-08-08T06:31:17.095Z,28.58
2022-08-08T06:32:17.425Z,28.94
2022-08-08T06:33:17.025Z,29.10
2022-08-08T06:34:27.635Z,29.54
2022-08-08T06:36:07.154Z,30.04
2022-08-08T06:36:16.949Z,30.36
2022-08-08T06:37:24.508Z,30.06
2022-08-08T06:38:16.843Z,29.69
2022-08-08T06:39:16.837Z,29.88
2022-08-08T06:40:16.967Z,30.59
2022-08-08T06:41:16.747Z,30.57
2022-08-08T06:42:16.715Z,30.46
2022-08-08T06:43:16.679Z,30.19
2022-08-08T06:44:18.539Z,30.45
2022-08-08T06:45:16.630Z,30.37
2022-08-08T06:46:16.586Z,29.91
2022-08-08T06:47:22.309Z,30.30
2022-08-08T06:48:16.518Z,30.53
2022-08-08T06:49:16.490Z,30.75
2022-08-08T06:50:17.531Z,30.34
2022-08-08T06:51:16.422Z,29.79
2022-08-08T06:52:16.391Z,29.42
2022-08-08T06:53:20.158Z,29.86
2022-08-08T06:54:16.326Z,29.37
2022-08-08T06:55:16.541Z,29.45
2022-08-08T06:56:16.594Z,29.15
2022-08-08T06:57:16.244Z,29.48
2022-08-08T06:58:18.681Z,29.69
2022-08-08T06:59:16.170Z,30.22
2022-08-08T07:00:16.149Z,30.46
2022-08-08T07:02:16.849Z,30.00
2022-08-08T07:02:17.835Z,29.74
2022-08-08T07:03:51.598Z,30.10
2022-08-08T07:04:37.554Z,29.81
2022-08-08T07:05:20.736Z,30.38
2022-08-08T07:06:15.946Z,30.76
2022-08-08T07:07:15.941Z,31.07
2022-08-08T07:08:16.605Z,31.05
2022-08-08T07:09:18.099Z,31.13
2022-08-08T07:10:15.816Z,31.04
2022-08-08T07:11:22.038Z,31.12
2022-08-08T07:12:15.752Z,31.25
2022-08-08T07:13:15.721Z,31.69
2022-08-08T07:14:15.703Z,32.28
2022-08-08T07:15:31.816Z,32.53
2022-08-08T07:16:15.635Z,33.31
2022-08-08T07:17:19.719Z,33.90
2022-08-08T07:18:37.080Z,33.92
2022-08-08T07:19:15.546Z,33.99
2022-08-08T07:20:15.499Z,33.77
2022-08-08T07:21:19.436Z,33.21
2022-08-08T07:22:18.852Z,32.87
2022-08-08T07:23:15.407Z,32.19
2022-08-08T07:24:15.373Z,31.98
2022-08-08T07:25:17.500Z,31.67
2022-08-08T07:26:15.312Z,31.50
2022-08-08T07:27:16.658Z,30.98
2022-08-08T07:28:19.830Z,30.51
2022-08-08T07:29:58.796Z,30.68
2022-08-08T07:30:16.789Z,30.94
2022-08-08T07:31:15.165Z,31.35
2022-08-08T07:32:15.931Z,31.45
2022-08-08T07:33:17.596Z,31.27
2022-08-08T07:34:20.452Z,31.71
2022-08-08T07:35:15.032Z,31.85
2022-08-08T07:36:15.193Z,32.10
2022-08-08T07:37:14.970Z,32.25
2022-08-08T07:38:20.309Z,31.69
2022-08-08T07:39:14.939Z,31.54
2022-08-08T07:40:29.093Z,31.23
2022-08-08T07:41:16.729Z,30.76
2022-08-08T07:42:18.705Z,30.44
2022-08-08T07:43:14.797Z,30.70
2022-08-08T07:44:33.450Z,30.38
2022-08-08T07:45:14.724Z,30.26
2022-08-08T07:46:23.287Z,30.67
2022-08-08T07:47:14.661Z,30.72
2022-08-08T07:48:14.644Z,30.72
2022-08-08T07:49:14.601Z,30.37
2022-08-08T07:50:14.571Z,30.40
2022-08-08T07:51:23.157Z,30.07
2022-08-08T07:52:19.662Z,30.11
2022-08-08T07:53:23.967Z,29.99
2022-08-08T07:54:15.844Z,29.95
2022-08-08T07:55:14.417Z,29.74
2022-08-08T07:56:14.383Z,29.32
2022-08-08T07:57:16.812Z,29.29
2022-08-08T07:58:14.324Z,29.00
2022-08-08T07:59:14.777Z,29.02
2022-08-08T08:00:16.708Z,28.79
2022-08-08T08:01:14.301Z,28.05
2022-08-08T08:02:36.802Z,28.02
2022-08-08T08:03:23.440Z,27.91
2022-08-08T08:04:14.153Z,28.01
2022-08-08T08:05:15.366Z,27.95
2022-08-08T08:06:14.394Z,27.65
2022-08-08T08:07:14.048Z,27.53
2022-08-08T08:08:14.013Z,27.90
2022-08-08T08:09:14.203Z,27.40
2022-08-08T08:10:13.968Z,27.48
2022-08-08T08:11:20.054Z,27.65
2022-08-08T08:12:30.182Z,27.98
2022-08-08T08:13:17.690Z,28.33
2022-08-08T08:14:15.237Z,28.92
2022-08-08T08:15:15.211Z,28.77
2022-08-08T08:16:13.785Z,28.43
2022-08-08T08:17:13.994Z,27.46
2022-08-08T08:18:14.310Z,27.66
2022-08-08T08:19:14.830Z,28.03
2022-08-08T08:20:13.649Z,27.98
2022-08-08T08:21:18.805Z,28.60
2022-08-08T08:22:15.151Z,29.00
2022-08-08T08:23:13.556Z,28.51
2022-08-08T08:24:13.520Z,28.45
2022-08-08T08:25:13.489Z,28.74
2022-08-08T08:26:13.460Z,29.02
2022-08-08T08:27:13.445Z,29.15
2022-08-08T08:28:21.264Z,29.26
2022-08-08T08:29:13.974Z,29.73
2022-08-08T08:30:13.340Z,30.13
2022-08-08T08:31:13.309Z,30.34
2022-08-08T08:32:24.061Z,30.68
2022-08-08T08:33:13.262Z,30.36
2022-08-08T08:34:21.342Z,30.30
2022-08-08T08:35:15.053Z,30.34
2022-08-08T08:36:18.630Z,30.68
2022-08-08T08:37:15.703Z,30.64
2022-08-08T08:38:17.461Z,30.54
2022-08-08T08:39:17.508Z,30.21
2022-08-08T08:40:13.197Z,30.21
2022-08-08T08:41:17.857Z,30.54
2022-08-08T08:42:13.196Z,30.56
2022-08-08T08:43:16.933Z,30.75
2022-08-08T08:44:13.798Z,30.36
2022-08-08T08:45:22.523Z,30.53
2022-08-08T08:46:17.659Z,30.04
2022-08-08T08:47:12.830Z,30.18
2022-08-08T08:48:19.317Z,29.91
2022-08-08T08:49:12.790Z,30.01
2022-08-08T08:50:17.237Z,29.85
2022-08-08T08:51:12.714Z,30.15
2022-08-08T08:52:12.686Z,30.63
2022-08-08T08:53:54.526Z,30.98
2022-08-08T08:54:12.625Z,30.72
2022-08-08T08:55:12.611Z,30.46
2022-08-08T08:56:12.565Z,29.70
2022-08-08T08:57:17.187Z,29.92
2022-08-08T08:58:12.510Z,30.13
2022-08-08T08:59:15.148Z,30.25
2022-08-08T09:00:17.027Z,30.70
2022-08-08T09:01:13.096Z,30.90
2022-08-08T09:02:12.435Z,30.94
2022-08-08T09:03:12.371Z,31.09
2022-08-08T09:04:30.176Z,30.83
2022-08-08T09:05:28.789Z,31.20
2022-08-08T09:06:26.418Z,31.04
2022-08-08T09:07:13.677Z,31.04
2022-08-08T09:08:18.363Z,31.47
2022-08-08T09:09:19.147Z,31.98
2022-08-08T09:10:17.114Z,31.85
2022-08-08T09:11:12.135Z,31.68
2022-08-08T09:12:12.116Z,31.34
2022-08-08T09:13:12.076Z,30.70
2022-08-08T09:14:12.048Z,30.72
2022-08-08T09:15:12.031Z,30.85
2022-08-08T09:16:11.991Z,31.01
2022-08-08T09:17:17.965Z,31.15
2022-08-08T09:18:13.062Z,31.57
2022-08-08T09:19:11.908Z,31.67
2022-08-08T09:21:57.051Z,30.78
2022-08-08T09:22:02.440Z,31.57
2022-08-08T09:22:11.822Z,30.94
2022-08-08T09:23:17.313Z,31.38
2022-08-08T09:24:13.497Z,31.22
2022-08-08T09:25:11.739Z,30.34
2022-08-08T09:26:12.672Z,29.86
2022-08-08T09:27:14.757Z,30.08
2022-08-08T09:28:11.663Z,30.46
2022-08-08T09:29:11.626Z,30.22
2022-08-08T09:30:14.755Z,30.29
2022-08-08T09:31:12.692Z,30.46
2022-08-08T09:32:11.899Z,30.66
2022-08-08T09:33:54.023Z,30.63
2022-08-08T09:34:30.178Z,30.60
2022-08-08T09:35:11.458Z,30.48
2022-08-08T09:36:11.428Z,30.30
2022-08-08T09:37:57.599Z,30.22
2022-08-08T09:38:17.654Z,29.92
2022-08-08T09:39:18.994Z,29.91
2022-08-08T09:40:12.015Z,29.91
2022-08-08T09:41:11.291Z,30.00
2022-08-08T09:42:20.059Z,30.26
2022-08-08T09:43:16.583Z,30.73
2022-08-08T09:44:15.275Z,31.04
2022-08-08T09:45:20.601Z,31.22
2022-08-08T09:46:16.957Z,31.20
2022-08-08T09:48:02.338Z,31.41
2022-08-08T09:48:21.233Z,31.42
2022-08-08T09:49:42.772Z,30.75
2022-08-08T09:50:13.908Z,29.92
2022-08-08T09:51:11.009Z,29.91
2022-08-08T09:52:16.100Z,29.78
2022-08-08T09:53:31.648Z,29.17
2022-08-08T09:54:18.397Z,29.29
2022-08-08T09:55:12.838Z,29.35
2022-08-08T09:56:11.616Z,29.55
2022-08-08T09:57:17.020Z,29.32
2022-08-08T09:58:10.829Z,29.70
2022-08-08T09:59:39.482Z,29.81
2022-08-08T10:00:53.192Z,29.73
2022-08-08T10:01:15.057Z,29.30
2022-08-08T10:02:14.561Z,28.73
2022-08-08T10:03:10.675Z,28.80
2022-08-08T10:04:10.662Z,29.14
2022-08-08T10:05:15.013Z,29.25
2022-08-08T10:06:10.592Z,29.57
2022-08-08T10:07:10.677Z,29.33
2022-08-08T10:08:10.532Z,29.63
2022-08-08T10:09:10.506Z,29.82
2022-08-08T10:10:10.497Z,29.70
2022-08-08T10:12:23.143Z,29.85
2022-08-08T10:12:28.148Z,29.51
2022-08-08T10:13:14.640Z,29.44
2022-08-08T10:14:10.798Z,29.52
2022-08-08T10:15:17.619Z,29.60
2022-08-08T10:16:10.322Z,29.71
2022-08-08T10:17:57.552Z,30.15
2022-08-08T10:18:17.172Z,30.68
2022-08-08T10:19:10.225Z,30.82
2022-08-08T10:20:10.196Z,31.05
2022-08-08T10:21:25.650Z,31.09
2022-08-08T10:22:10.171Z,31.20
2022-08-08T10:23:13.247Z,31.01
2022-08-08T10:24:28.642Z,30.60
2022-08-08T10:25:15.686Z,30.64
2022-08-08T10:26:25.780Z,30.54
2022-08-08T10:27:13.076Z,30.07
2022-08-08T10:28:15.117Z,30.21
2022-08-08T10:29:11.281Z,30.45
2022-08-08T10:30:16.400Z,30.64
2022-08-08T10:31:09.890Z,30.91
2022-08-08T10:32:09.862Z,30.98
2022-08-08T10:33:09.847Z,30.93
2022-08-08T10:34:19.010Z,30.36
2022-08-08T10:35:10.505Z,30.04
2022-08-08T10:36:20.545Z,30.26
2022-08-08T10:37:09.735Z,30.40
2022-08-08T10:38:10.787Z,30.44
2022-08-08T10:39:09.711Z,30.51
2022-08-08T10:40:09.689Z,30.36
2022-08-08T10:41:09.618Z,30.30
2022-08-08T10:42:14.944Z,30.13
2022-08-08T10:43:09.951Z,30.00
2022-08-08T10:44:09.538Z,30.36
2022-08-08T10:45:09.737Z,30.60
2022-08-08T10:46:29.661Z,30.59
2022-08-08T10:47:09.459Z,30.70
2022-08-08T10:48:09.431Z,30.90
2022-08-08T10:49:09.401Z,30.61
2022-08-08T10:50:09.379Z,30.56
2022-08-08T10:51:09.355Z,30.49
2022-08-08T10:52:09.325Z,30.48
2022-08-08T10:53:11.725Z,30.56
2022-08-08T10:54:10.423Z,30.36
2022-08-08T10:55:09.245Z,30.38
2022-08-08T10:56:09.222Z,29.88
2022-08-08T10:57:09.184Z,29.55
2022-08-08T10:58:09.160Z,29.42
2022-08-08T10:59:09.127Z,29.47
2022-08-08T11:00:09.104Z,29.57
2022-08-08T11:01:10.908Z,29.82
2022-08-08T11:02:09.108Z,29.18
2022-08-08T11:03:09.023Z,28.65
2022-08-08T11:04:10.770Z,28.62
2022-08-08T11:05:14.905Z,29.05
2022-08-08T11:06:12.519Z,29.17
2022-08-08T11:07:15.036Z,29.10
2022-08-08T11:08:39.085Z,29.25
2022-08-08T11:09:15.094Z,29.29
2022-08-08T11:10:08.826Z,29.58
2022-08-08T11:11:32.631Z,29.79
2022-08-08T11:12:13.621Z,29.78
2022-08-08T11:13:33.897Z,29.37
2022-08-08T11:14:08.715Z,29.35
2022-08-08T11:15:09.452Z,29.39
2022-08-08T11:16:11.546Z,29.55
2022-08-08T11:17:08.790Z,29.64
2022-08-08T11:18:08.605Z,29.86
2022-08-08T11:19:10.730Z,30.11
2022-08-08T11:20:10.933Z,30.18
2022-08-08T11:21:10.663Z,30.34
2022-08-08T11:22:08.511Z,30.22
2022-08-08T11:23:08.464Z,29.85
2022-08-08T11:24:08.441Z,30.03
2022-08-08T11:25:14.353Z,30.30
2022-08-08T11:26:08.390Z,30.63
2022-08-08T11:27:10.463Z,30.54
2022-08-08T11:28:08.331Z,30.18
2022-08-08T11:29:08.495Z,30.22
2022-08-08T11:30:19.564Z,30.23
2022-08-08T11:31:08.707Z,30.19
2022-08-08T11:32:08.216Z,30.04
2022-08-08T11:33:12.119Z,29.78
2022-08-08T11:34:31.743Z,29.64
2022-08-08T11:35:23.413Z,29.63
2022-08-08T11:36:08.108Z,29.60
2022-08-08T11:37:15.229Z,29.42
2022-08-08T11:38:39.664Z,29.41
2022-08-08T11:39:11.013Z,29.32
2022-08-08T11:40:08.078Z,29.36
2022-08-08T11:41:07.963Z,29.26
2022-08-08T11:42:09.109Z,28.60
2022-08-08T11:43:07.919Z,28.14
2022-08-08T11:44:07.880Z,28.24
2022-08-08T11:45:07.853Z,28.42
2022-08-08T11:46:13.370Z,28.51
2022-08-08T11:47:13.049Z,28.82
2022-08-08T11:48:09.688Z,29.14
2022-08-08T11:49:07.751Z,29.37
2022-08-08T11:50:09.973Z,29.67
2022-08-08T11:51:29.848Z,29.60
2022-08-08T11:52:07.661Z,29.52
2022-08-08T11:53:07.625Z,29.29
2022-08-08T11:54:26.949Z,29.12
2022-08-08T11:55:07.573Z,29.30
2022-08-08T11:56:07.550Z,29.32
2022-08-08T11:57:07.519Z,29.12
2022-08-08T11:58:15.383Z,29.26
2022-08-08T11:59:07.475Z,29.20
2022-08-08T12:00:07.510Z,28.82
2022-08-08T12:01:12.279Z,28.92
2022-08-08T12:02:31.081Z,29.14
2022-08-08T12:03:07.376Z,29.25
2022-08-08T12:04:07.326Z,28.91
2022-08-08T12:05:07.313Z,28.77
2022-08-08T12:06:07.274Z,28.48
2022-08-08T12:07:07.927Z,28.08
2022-08-08T12:08:07.219Z,28.25
2022-08-08T12:09:07.189Z,28.52
2022-08-08T12:10:08.729Z,28.32
2022-08-08T12:11:07.155Z,28.21
2022-08-08T12:12:07.109Z,28.27
2022-08-08T12:13:07.090Z,28.25
2022-08-08T12:14:07.648Z,28.27
2022-08-08T12:15:07.022Z,28.23
2022-08-08T12:16:07.007Z,27.98
2022-08-08T12:17:06.967Z,27.86
2022-08-08T12:18:06.942Z,27.99
2022-08-08T12:19:06.909Z,28.06
2022-08-08T12:20:06.913Z,28.27
2022-08-08T12:21:07.877Z,28.20
2022-08-08T12:22:09.401Z,28.33
2022-08-08T12:23:06.800Z,28.60
2022-08-08T12:24:06.774Z,28.62
2022-08-08T12:25:06.744Z,28.70
2022-08-08T12:26:06.732Z,28.51
2022-08-08T12:27:07.094Z,28.09
2022-08-08T12:28:06.664Z,27.80
2022-08-08T12:29:06.633Z,27.84
2022-08-08T12:30:15.707Z,27.74
2022-08-08T12:31:07.004Z,27.78
2022-08-08T12:32:09.430Z,27.88
2022-08-08T12:33:07.871Z,27.81
2022-08-08T12:34:06.504Z,27.65
2022-08-08T12:35:17.496Z,27.46
2022-08-08T12:36:06.437Z,27.43
2022-08-08T12:37:08.434Z,27.50
2022-08-08T12:38:06.385Z,27.65
2022-08-08T12:39:06.817Z,27.76
2022-08-08T12:40:06.409Z,27.95
2022-08-08T12:41:24.443Z,28.01
2022-08-08T12:42:06.292Z,28.27
2022-08-08T12:43:06.250Z,28.27
2022-08-08T12:44:06.215Z,28.42
2022-08-08T12:45:20.231Z,28.38
2022-08-08T12:46:06.162Z,28.38
2022-08-08T12:47:09.012Z,28.38
2022-08-08T12:48:10.334Z,28.27
2022-08-08T12:49:25.069Z,28.14
2022-08-08T12:50:06.058Z,28.20
2022-08-08T12:51:06.024Z,28.11